Amsterdam, Netherlands

5:29 PM CET on February 13, 2016 (GMT +0100)
Aalsmeerderbrug | | Change Station
CLOSE
Current Station
Personal Weather Station
Location: Aalsmeerderbrug, NOORD-HOLLAND
Elevation: -3 ft
Nearby Weather Stations

Elev -3 ft 52.27 °N, 4.75 °E | Updated 14 minutes ago

Partly Cloudy
Partly Cloudy
38.1 °F
Feels Like 38 °F
N
2.2
Wind Variable Wind from ENE
Gusts 8.3 mph

Today
High -- | Low -- °F
--% Chance of Precip.
Yesterday
High -- | Low -- °F
Precip. -- in
Pressure 29.12 in
Visibility 6.2 miles
Clouds Few 1100 ft
Windchill 38 °F
Dew Point 33 °F
Humidity 81%
Rainfall 0.00 in
Snow Depth Not available.
8:01 AM 5:49 PM
Waxing Crescent, 32% visible
METAR EHAM 131625Z 06011KT 9999 FEW011 03/01 Q0986 NOSIG
Pressure 29.12 in
Visibility 6.2 miles
Clouds Few 1100 ft
Windchill 38 °F
Dew Point 33 °F
Humidity 81%
Rainfall 0.00 in
Snow Depth Not available.
8:01 AM 5:49 PM
Waxing Crescent, 32% visible
METAR EHAM 131625Z 06011KT 9999 FEW011 03/01 Q0986 NOSIG

10-Day Weather Forecast

Almanac

Astronomy

Feb. 13, 2016 Rise Set
Actual Time
Civil Twilight
Nautical Twilight
Astronomical Twilight
Moon
Length of Visible Light
Length of Day
Tomorrow will be .
, % of the Moon is Illuminated

Today's Extremes

Country Highs Country Lows

Community

WunderPhotos

Upload Photos

1,892,599 photos uploaded!

WunderBlog® & News

Nearby

Air Quality

  Air Quality AQ Index Pollutant
Not available.

Snow Depth

Station Depth Elevation

Earthquake Activity

City Distance Mag. Time & Date
Minimum magnitude displayed is 2.5.

Coastal Water Temperatures

Place Temperature

Stations

Nearby Weather Stations

Station Location Temp. Windchill Dew Point Humidity Wind Precip. Elev Updated Type